sensor_id;sensor_type;location;lat;lon;timestamp;pressure;altitude;pressure_sealevel;temperature;humidity
44297;BME280;51842;47.450;8.654;2023-07-09T00:02:05;95930.38;;;18.00;87.17
44297;BME280;51842;47.450;8.654;2023-07-09T00:04:31;95922.72;;;17.94;87.73
44297;BME280;51842;47.450;8.654;2023-07-09T00:07:03;95925.91;;;17.96;87.19
44297;BME280;51842;47.450;8.654;2023-07-09T00:09:30;95925.31;;;17.85;88.53
44297;BME280;51842;47.450;8.654;2023-07-09T00:11:57;95926.63;;;17.88;87.92
44297;BME280;51842;47.450;8.654;2023-07-09T00:14:23;95923.84;;;17.79;88.49
44297;BME280;51842;47.450;8.654;2023-07-09T00:16:49;95925.50;;;17.75;88.78
44297;BME280;51842;47.450;8.654;2023-07-09T00:19:21;95921.63;;;17.67;90.00
44297;BME280;51842;47.450;8.654;2023-07-09T00:21:50;95931.41;;;17.63;90.00
44297;BME280;51842;47.450;8.654;2023-07-09T00:24:19;95929.03;;;17.62;90.28
44297;BME280;51842;47.450;8.654;2023-07-09T00:26:45;95935.63;;;17.55;90.47
44297;BME280;51842;47.450;8.654;2023-07-09T00:29:16;95941.47;;;17.57;90.23
44297;BME280;51842;47.450;8.654;2023-07-09T00:31:42;95937.19;;;17.56;90.33
44297;BME280;51842;47.450;8.654;2023-07-09T00:34:12;95934.81;;;17.55;91.52
44297;BME280;51842;47.450;8.654;2023-07-09T00:36:40;95934.00;;;17.54;90.74
44297;BME280;51842;47.450;8.654;2023-07-09T00:39:17;95934.00;;;17.54;90.61
44297;BME280;51842;47.450;8.654;2023-07-09T00:41:44;95924.66;;;17.52;91.06
44297;BME280;51842;47.450;8.654;2023-07-09T00:44:32;95936.31;;;17.47;90.43
44297;BME280;51842;47.450;8.654;2023-07-09T00:49:32;95930.91;;;17.47;90.07
44297;BME280;51842;47.450;8.654;2023-07-09T00:52:20;95937.09;;;17.48;90.17
44297;BME280;51842;47.450;8.654;2023-07-09T00:54:51;95943.09;;;17.45;90.44
44297;BME280;51842;47.450;8.654;2023-07-09T00:57:23;95942.88;;;17.41;89.92
44297;BME280;51842;47.450;8.654;2023-07-09T00:59:57;95942.09;;;17.41;89.74
44297;BME280;51842;47.450;8.654;2023-07-09T01:02:25;95941.38;;;17.35;89.63
44297;BME280;51842;47.450;8.654;2023-07-09T01:04:58;95947.16;;;17.28;90.10
44297;BME280;51842;47.450;8.654;2023-07-09T01:07:28;95953.75;;;17.22;90.59
44297;BME280;51842;47.450;8.654;2023-07-09T01:09:54;95948.75;;;17.16;90.38
44297;BME280;51842;47.450;8.654;2023-07-09T01:12:21;95952.03;;;17.13;91.04
44297;BME280;51842;47.450;8.654;2023-07-09T01:14:54;95951.03;;;17.08;91.37
44297;BME280;51842;47.450;8.654;2023-07-09T01:17:25;95961.00;;;17.08;91.20
44297;BME280;51842;47.450;8.654;2023-07-09T01:19:54;95951.91;;;17.04;91.34
44297;BME280;51842;47.450;8.654;2023-07-09T01:22:22;95957.63;;;17.02;91.01
44297;BME280;51842;47.450;8.654;2023-07-09T01:25:06;95957.69;;;16.97;91.39
44297;BME280;51842;47.450;8.654;2023-07-09T01:27:42;95963.59;;;16.99;91.65
44297;BME280;51842;47.450;8.654;2023-07-09T01:30:15;95962.56;;;16.95;92.37
44297;BME280;51842;47.450;8.654;2023-07-09T01:32:41;95960.47;;;16.92;92.33
44297;BME280;51842;47.450;8.654;2023-07-09T01:35:14;95957.88;;;16.87;93.38
44297;BME280;51842;47.450;8.654;2023-07-09T01:37:42;95954.19;;;16.83;93.75
44297;BME280;51842;47.450;8.654;2023-07-09T01:40:13;95961.94;;;16.84;93.13
44297;BME280;51842;47.450;8.654;2023-07-09T01:42:41;95958.47;;;16.84;92.86
44297;BME280;51842;47.450;8.654;2023-07-09T01:45:09;95955.06;;;16.78;93.96
44297;BME280;51842;47.450;8.654;2023-07-09T01:47:37;95957.22;;;16.76;94.23
44297;BME280;51842;47.450;8.654;2023-07-09T01:50:07;95951.63;;;16.73;94.19
44297;BME280;51842;47.450;8.654;2023-07-09T01:52:38;95952.66;;;16.77;94.04
44297;BME280;51842;47.450;8.654;2023-07-09T01:55:05;95954.81;;;16.75;94.30
44297;BME280;51842;47.450;8.654;2023-07-09T01:57:31;95960.75;;;16.77;94.22
44297;BME280;51842;47.450;8.654;2023-07-09T02:00:10;95951.41;;;16.69;94.80
44297;BME280;51842;47.450;8.654;2023-07-09T02:02:37;95962.47;;;16.68;95.35
44297;BME280;51842;47.450;8.654;2023-07-09T02:05:11;95955.00;;;16.64;94.83
44297;BME280;51842;47.450;8.654;2023-07-09T02:07:38;95951.50;;;16.64;95.45
44297;BME280;51842;47.450;8.654;2023-07-09T02:10:04;95954.47;;;16.62;95.53
44297;BME280;51842;47.450;8.654;2023-07-09T02:12:30;95951.56;;;16.59;95.25
44297;BME280;51842;47.450;8.654;2023-07-09T02:14:56;95948.97;;;16.54;94.98
44297;BME280;51842;47.450;8.654;2023-07-09T02:17:22;95956.53;;;16.52;94.56
44297;BME280;51842;47.450;8.654;2023-07-09T02:19:47;95955.81;;;16.46;94.80
44297;BME280;51842;47.450;8.654;2023-07-09T02:22:13;95957.47;;;16.42;95.42
44297;BME280;51842;47.450;8.654;2023-07-09T02:24:39;95962.34;;;16.40;96.02
44297;BME280;51842;47.450;8.654;2023-07-09T02:27:08;95966.22;;;16.34;96.44
44297;BME280;51842;47.450;8.654;2023-07-09T02:29:36;95968.69;;;16.30;96.90
44297;BME280;51842;47.450;8.654;2023-07-09T02:32:04;95964.69;;;16.28;97.56
44297;BME280;51842;47.450;8.654;2023-07-09T02:34:31;95969.19;;;16.32;96.70
44297;BME280;51842;47.450;8.654;2023-07-09T02:36:58;95967.06;;;16.29;96.53
44297;BME280;51842;47.450;8.654;2023-07-09T02:39:25;95962.38;;;16.21;97.23
44297;BME280;51842;47.450;8.654;2023-07-09T02:41:52;95953.00;;;16.18;97.58
44297;BME280;51842;47.450;8.654;2023-07-09T02:44:18;95960.25;;;16.18;97.02
44297;BME280;51842;47.450;8.654;2023-07-09T02:46:45;95962.16;;;16.17;97.23
44297;BME280;51842;47.450;8.654;2023-07-09T02:49:13;95960.84;;;16.15;96.83
44297;BME280;51842;47.450;8.654;2023-07-09T02:51:40;95958.72;;;16.12;97.03
44297;BME280;51842;47.450;8.654;2023-07-09T02:54:07;95968.97;;;16.10;97.49
44297;BME280;51842;47.450;8.654;2023-07-09T02:56:33;95968.75;;;16.06;97.09
44297;BME280;51842;47.450;8.654;2023-07-09T02:58:59;95970.47;;;15.97;98.06
44297;BME280;51842;47.450;8.654;2023-07-09T03:01:25;95975.63;;;15.93;97.93
44297;BME280;51842;47.450;8.654;2023-07-09T03:03:54;95973.38;;;16.01;97.68
44297;BME280;51842;47.450;8.654;2023-07-09T03:06:23;95972.44;;;15.91;98.38
44297;BME280;51842;47.450;8.654;2023-07-09T03:08:50;95980.22;;;15.93;97.79
44297;BME280;51842;47.450;8.654;2023-07-09T03:11:18;95979.41;;;15.92;97.82
44297;BME280;51842;47.450;8.654;2023-07-09T03:13:44;95981.31;;;15.92;97.75
44297;BME280;51842;47.450;8.654;2023-07-09T03:16:11;95983.47;;;15.90;97.63
44297;BME280;51842;47.450;8.654;2023-07-09T03:18:37;95985.06;;;15.91;97.47
44297;BME280;51842;47.450;8.654;2023-07-09T03:21:03;95981.00;;;15.93;97.14
44297;BME280;51842;47.450;8.654;2023-07-09T03:23:29;95982.09;;;15.92;96.95
44297;BME280;51842;47.450;8.654;2023-07-09T03:25:56;95985.88;;;15.91;97.46
44297;BME280;51842;47.450;8.654;2023-07-09T03:28:23;95990.22;;;15.87;97.64
44297;BME280;51842;47.450;8.654;2023-07-09T03:30:52;95980.28;;;15.88;97.52
44297;BME280;51842;47.450;8.654;2023-07-09T03:33:18;95983.75;;;15.88;97.66
44297;BME280;51842;47.450;8.654;2023-07-09T03:35:44;95985.88;;;15.91;97.53
44297;BME280;51842;47.450;8.654;2023-07-09T03:38:11;95997.13;;;15.93;97.47
44297;BME280;51842;47.450;8.654;2023-07-09T03:40:37;95996.59;;;15.91;97.50
44297;BME280;51842;47.450;8.654;2023-07-09T03:43:09;95992.84;;;15.92;97.87
44297;BME280;51842;47.450;8.654;2023-07-09T03:45:37;95992.34;;;15.90;97.90
44297;BME280;51842;47.450;8.654;2023-07-09T03:48:04;96000.69;;;15.89;98.62
44297;BME280;51842;47.450;8.654;2023-07-09T03:50:31;95992.63;;;15.89;99.21
44297;BME280;51842;47.450;8.654;2023-07-09T03:52:57;95996.59;;;15.91;99.42
44297;BME280;51842;47.450;8.654;2023-07-09T03:55:23;95988.34;;;15.88;100.00
44297;BME280;51842;47.450;8.654;2023-07-09T03:58:00;96000.13;;;15.92;100.00
44297;BME280;51842;47.450;8.654;2023-07-09T04:00:28;96000.34;;;15.95;99.46
44297;BME280;51842;47.450;8.654;2023-07-09T04:02:54;95997.66;;;15.95;99.07
44297;BME280;51842;47.450;8.654;2023-07-09T04:05:23;95997.91;;;15.94;99.26
44297;BME280;51842;47.450;8.654;2023-07-09T04:07:49;96001.72;;;15.93;99.68
44297;BME280;51842;47.450;8.654;2023-07-09T04:10:16;96005.19;;;15.93;99.78
44297;BME280;51842;47.450;8.654;2023-07-09T04:12:42;95997.66;;;15.95;99.76
44297;BME280;51842;47.450;8.654;2023-07-09T04:15:08;95996.56;;;15.96;100.00
44297;BME280;51842;47.450;8.654;2023-07-09T04:17:35;96002.44;;;15.99;100.00
44297;BME280;51842;47.450;8.654;2023-07-09T04:20:02;95998.66;;;16.00;99.95
44297;BME280;51842;47.450;8.654;2023-07-09T04:22:32;96007.91;;;16.12;99.81
44297;BME280;51842;47.450;8.654;2023-07-09T04:24:58;96009.38;;;16.24;98.93
44297;BME280;51842;47.450;8.654;2023-07-09T04:27:24;96010.91;;;16.30;98.22
44297;BME280;51842;47.450;8.654;2023-07-09T04:29:54;96008.34;;;16.38;97.76
44297;BME280;51842;47.450;8.654;2023-07-09T04:32:20;96014.00;;;16.56;97.84
44297;BME280;51842;47.450;8.654;2023-07-09T04:34:47;96007.25;;;16.77;96.88
44297;BME280;51842;47.450;8.654;2023-07-09T04:37:14;96018.72;;;17.02;96.01
44297;BME280;51842;47.450;8.654;2023-07-09T04:39:44;96020.75;;;17.24;94.66
44297;BME280;51842;47.450;8.654;2023-07-09T04:42:16;96017.88;;;17.48;93.86
44297;BME280;51842;47.450;8.654;2023-07-09T04:44:44;96018.22;;;17.74;92.86
44297;BME280;51842;47.450;8.654;2023-07-09T04:47:09;96010.72;;;17.98;91.81
44297;BME280;51842;47.450;8.654;2023-07-09T04:49:37;96016.22;;;18.21;90.95
44297;BME280;51842;47.450;8.654;2023-07-09T04:52:03;96017.94;;;18.39;90.39
44297;BME280;51842;47.450;8.654;2023-07-09T04:54:29;96017.56;;;18.46;89.72
44297;BME280;51842;47.450;8.654;2023-07-09T04:56:56;96016.22;;;18.57;89.45
44297;BME280;51842;47.450;8.654;2023-07-09T04:59:22;96006.69;;;18.73;89.01
44297;BME280;51842;47.450;8.654;2023-07-09T05:01:49;96018.59;;;18.95;87.12
44297;BME280;51842;47.450;8.654;2023-07-09T05:04:15;96018.22;;;19.10;85.67
44297;BME280;51842;47.450;8.654;2023-07-09T05:06:41;96016.31;;;19.42;85.71
44297;BME280;51842;47.450;8.654;2023-07-09T05:09:07;96014.44;;;19.74;83.58
44297;BME280;51842;47.450;8.654;2023-07-09T05:11:35;96016.59;;;20.03;82.61
44297;BME280;51842;47.450;8.654;2023-07-09T05:14:02;96015.69;;;20.33;82.38
44297;BME280;51842;47.450;8.654;2023-07-09T05:16:29;96019.25;;;20.60;80.81
44297;BME280;51842;47.450;8.654;2023-07-09T05:18:55;96025.94;;;20.89;80.77
44297;BME280;51842;47.450;8.654;2023-07-09T05:21:20;96017.81;;;21.06;78.30
44297;BME280;51842;47.450;8.654;2023-07-09T05:23:46;96018.41;;;21.29;78.87
44297;BME280;51842;47.450;8.654;2023-07-09T05:26:12;96017.25;;;21.56;77.12
44297;BME280;51842;47.450;8.654;2023-07-09T05:28:38;96026.41;;;21.81;73.31
44297;BME280;51842;47.450;8.654;2023-07-09T05:31:06;96026.56;;;22.06;72.28
44297;BME280;51842;47.450;8.654;2023-07-09T05:33:32;96023.75;;;22.32;70.09
44297;BME280;51842;47.450;8.654;2023-07-09T05:35:58;96028.53;;;22.56;69.98
44297;BME280;51842;47.450;8.654;2023-07-09T05:38:24;96031.38;;;22.80;68.82
44297;BME280;51842;47.450;8.654;2023-07-09T05:41:02;96036.28;;;23.08;70.21
44297;BME280;51842;47.450;8.654;2023-07-09T05:43:29;96035.34;;;23.37;67.54
44297;BME280;51842;47.450;8.654;2023-07-09T05:45:55;96035.97;;;23.55;64.98
44297;BME280;51842;47.450;8.654;2023-07-09T05:48:21;96036.06;;;23.80;63.15
44297;BME280;51842;47.450;8.654;2023-07-09T05:50:52;96029.81;;;24.04;61.09
44297;BME280;51842;47.450;8.654;2023-07-09T05:53:18;96032.19;;;24.30;60.84
44297;BME280;51842;47.450;8.654;2023-07-09T05:55:43;96030.59;;;24.53;59.82
44297;BME280;51842;47.450;8.654;2023-07-09T05:58:09;96037.56;;;24.79;58.69
44297;BME280;51842;47.450;8.654;2023-07-09T06:00:35;96026.00;;;25.10;58.21
44297;BME280;51842;47.450;8.654;2023-07-09T06:03:03;96027.31;;;25.28;56.09
44297;BME280;51842;47.450;8.654;2023-07-09T06:05:33;96023.22;;;25.50;51.88
44297;BME280;51842;47.450;8.654;2023-07-09T06:07:59;96025.25;;;25.69;55.86
44297;BME280;51842;47.450;8.654;2023-07-09T06:10:25;96026.19;;;25.89;54.66
44297;BME280;51842;47.450;8.654;2023-07-09T06:12:51;96032.25;;;26.14;54.91
44297;BME280;51842;47.450;8.654;2023-07-09T06:15:18;96030.34;;;26.34;51.66
44297;BME280;51842;47.450;8.654;2023-07-09T06:17:44;96029.38;;;26.58;49.38
44297;BME280;51842;47.450;8.654;2023-07-09T06:20:11;96032.69;;;26.87;49.17
44297;BME280;51842;47.450;8.654;2023-07-09T06:22:36;96029.06;;;27.18;48.72
44297;BME280;51842;47.450;8.654;2023-07-09T06:25:02;96033.41;;;27.42;48.94
44297;BME280;51842;47.450;8.654;2023-07-09T06:27:28;96036.53;;;27.63;47.72
44297;BME280;51842;47.450;8.654;2023-07-09T06:29:54;96029.56;;;27.89;45.69
44297;BME280;51842;47.450;8.654;2023-07-09T06:32:20;96028.84;;;28.15;46.43
44297;BME280;51842;47.450;8.654;2023-07-09T06:34:46;96026.69;;;28.28;44.69
44297;BME280;51842;47.450;8.654;2023-07-09T06:37:11;96021.19;;;28.28;44.46
44297;BME280;51842;47.450;8.654;2023-07-09T06:39:37;96029.34;;;28.47;44.20
44297;BME280;51842;47.450;8.654;2023-07-09T06:42:03;96030.81;;;28.68;43.57
44297;BME280;51842;47.450;8.654;2023-07-09T06:44:29;96026.41;;;28.90;42.82
44297;BME280;51842;47.450;8.654;2023-07-09T06:46:55;96030.91;;;29.05;43.08
44297;BME280;51842;47.450;8.654;2023-07-09T06:49:20;96027.78;;;29.07;42.33
44297;BME280;51842;47.450;8.654;2023-07-09T06:51:46;96034.31;;;29.28;41.34
44297;BME280;51842;47.450;8.654;2023-07-09T06:54:12;96025.97;;;29.55;41.58
44297;BME280;51842;47.450;8.654;2023-07-09T06:56:41;96035.75;;;29.52;40.56
44297;BME280;51842;47.450;8.654;2023-07-09T06:59:07;96034.81;;;29.71;40.62
44297;BME280;51842;47.450;8.654;2023-07-09T07:01:33;96030.22;;;29.86;40.65
44297;BME280;51842;47.450;8.654;2023-07-09T07:03:58;96033.78;;;29.87;41.45
44297;BME280;51842;47.450;8.654;2023-07-09T07:06:24;96033.91;;;30.08;40.93
44297;BME280;51842;47.450;8.654;2023-07-09T07:08:50;96028.63;;;30.30;40.17
44297;BME280;51842;47.450;8.654;2023-07-09T07:11:16;96032.25;;;30.45;39.76
44297;BME280;51842;47.450;8.654;2023-07-09T07:13:44;96027.66;;;30.63;39.76
44297;BME280;51842;47.450;8.654;2023-07-09T07:16:12;96030.94;;;30.86;39.04
44297;BME280;51842;47.450;8.654;2023-07-09T07:18:39;96021.63;;;31.09;39.08
44297;BME280;51842;47.450;8.654;2023-07-09T07:21:05;96018.13;;;31.16;38.18
44297;BME280;51842;47.450;8.654;2023-07-09T07:23:31;96013.09;;;31.39;38.59
44297;BME280;51842;47.450;8.654;2023-07-09T07:25:58;96009.97;;;31.51;38.79
44297;BME280;51842;47.450;8.654;2023-07-09T07:28:24;96011.19;;;31.65;37.63
44297;BME280;51842;47.450;8.654;2023-07-09T07:31:06;96012.78;;;31.84;37.44
44297;BME280;51842;47.450;8.654;2023-07-09T07:33:41;96017.53;;;32.12;37.55
44297;BME280;51842;47.450;8.654;2023-07-09T07:36:08;96004.91;;;32.36;35.73
44297;BME280;51842;47.450;8.654;2023-07-09T07:38:34;96002.53;;;32.63;35.86
44297;BME280;51842;47.450;8.654;2023-07-09T07:41:01;95998.53;;;32.75;34.96
44297;BME280;51842;47.450;8.654;2023-07-09T07:43:27;96003.63;;;32.98;35.02
44297;BME280;51842;47.450;8.654;2023-07-09T07:45:53;96001.25;;;33.03;34.39
44297;BME280;51842;47.450;8.654;2023-07-09T07:48:19;95993.25;;;33.23;34.67
44297;BME280;51842;47.450;8.654;2023-07-09T07:50:46;95994.31;;;33.47;35.40
44297;BME280;51842;47.450;8.654;2023-07-09T07:53:16;95994.94;;;33.73;33.61
44297;BME280;51842;47.450;8.654;2023-07-09T07:55:42;95987.09;;;33.68;33.69
44297;BME280;51842;47.450;8.654;2023-07-09T07:58:13;95993.97;;;33.97;32.83
44297;BME280;51842;47.450;8.654;2023-07-09T08:00:39;95993.81;;;34.19;32.58
44297;BME280;51842;47.450;8.654;2023-07-09T08:03:06;95997.19;;;34.37;34.31
44297;BME280;51842;47.450;8.654;2023-07-09T08:05:31;95993.84;;;34.60;33.28
44297;BME280;51842;47.450;8.654;2023-07-09T08:07:57;96000.47;;;35.00;32.57
44297;BME280;51842;47.450;8.654;2023-07-09T08:10:23;95997.09;;;35.20;32.56
44297;BME280;51842;47.450;8.654;2023-07-09T08:12:49;95995.72;;;35.35;32.19
44297;BME280;51842;47.450;8.654;2023-07-09T08:15:14;95996.84;;;35.38;31.85
44297;BME280;51842;47.450;8.654;2023-07-09T08:17:40;95991.94;;;35.49;31.49
44297;BME280;51842;47.450;8.654;2023-07-09T08:20:07;95997.00;;;35.58;31.47
44297;BME280;51842;47.450;8.654;2023-07-09T08:22:32;95988.22;;;35.63;31.96
44297;BME280;51842;47.450;8.654;2023-07-09T08:24:58;95985.06;;;35.88;32.00
44297;BME280;51842;47.450;8.654;2023-07-09T08:27:24;95982.69;;;36.13;31.99
44297;BME280;51842;47.450;8.654;2023-07-09T08:29:49;95988.28;;;36.10;32.60
44297;BME280;51842;47.450;8.654;2023-07-09T08:32:15;95984.78;;;36.06;32.36
44297;BME280;51842;47.450;8.654;2023-07-09T08:34:41;95985.50;;;36.10;31.83
44297;BME280;51842;47.450;8.654;2023-07-09T08:37:08;95987.09;;;36.11;32.07
44297;BME280;51842;47.450;8.654;2023-07-09T08:39:34;95989.56;;;36.05;32.75
44297;BME280;51842;47.450;8.654;2023-07-09T08:42:11;95989.16;;;35.80;32.54
44297;BME280;51842;47.450;8.654;2023-07-09T08:47:47;95999.78;;;36.32;33.17
44297;BME280;51842;47.450;8.654;2023-07-09T08:50:37;96000.31;;;36.70;31.43
44297;BME280;51842;47.450;8.654;2023-07-09T08:53:05;95988.16;;;36.84;31.22
44297;BME280;51842;47.450;8.654;2023-07-09T08:55:34;95987.38;;;36.83;31.28
44297;BME280;51842;47.450;8.654;2023-07-09T08:58:24;95988.50;;;36.86;31.13
44297;BME280;51842;47.450;8.654;2023-07-09T09:01:04;95986.38;;;37.14;30.65
44297;BME280;51842;47.450;8.654;2023-07-09T09:03:46;95979.53;;;37.18;30.07
44297;BME280;51842;47.450;8.654;2023-07-09T09:06:18;95991.91;;;36.74;30.28
44297;BME280;51842;47.450;8.654;2023-07-09T09:09:08;95996.91;;;36.82;31.51
44297;BME280;51842;47.450;8.654;2023-07-09T09:11:45;95994.47;;;36.85;30.70
44297;BME280;51842;47.450;8.654;2023-07-09T09:14:31;95993.06;;;36.96;30.22
44297;BME280;51842;47.450;8.654;2023-07-09T09:16:59;95998.03;;;37.25;30.56
44297;BME280;51842;47.450;8.654;2023-07-09T09:19:37;95997.63;;;37.26;31.08
44297;BME280;51842;47.450;8.654;2023-07-09T09:22:17;95989.66;;;37.65;30.14
44297;BME280;51842;47.450;8.654;2023-07-09T09:27:41;95994.91;;;38.12;30.40
44297;BME280;51842;47.450;8.654;2023-07-09T09:30:21;95994.34;;;38.17;29.31
44297;BME280;51842;47.450;8.654;2023-07-09T09:33:01;95989.75;;;38.10;28.86
44297;BME280;51842;47.450;8.654;2023-07-09T09:35:36;95998.63;;;38.38;28.60
44297;BME280;51842;47.450;8.654;2023-07-09T09:38:17;95989.72;;;38.59;28.54
44297;BME280;51842;47.450;8.654;2023-07-09T09:40:43;95989.34;;;38.74;27.34
44297;BME280;51842;47.450;8.654;2023-07-09T09:43:18;95994.34;;;39.08;27.17
44297;BME280;51842;47.450;8.654;2023-07-09T09:45:49;95988.91;;;39.17;27.53
44297;BME280;51842;47.450;8.654;2023-07-09T09:48:38;95985.78;;;39.02;27.26
44297;BME280;51842;47.450;8.654;2023-07-09T09:51:04;95979.94;;;39.39;26.92
44297;BME280;51842;47.450;8.654;2023-07-09T09:53:39;95984.97;;;39.44;27.44
44297;BME280;51842;47.450;8.654;2023-07-09T09:56:17;95991.31;;;39.57;26.42
44297;BME280;51842;47.450;8.654;2023-07-09T09:58:44;95996.22;;;39.66;26.40
44297;BME280;51842;47.450;8.654;2023-07-09T10:01:18;95997.00;;;39.92;26.35
44297;BME280;51842;47.450;8.654;2023-07-09T10:03:51;95990.31;;;40.28;25.66
44297;BME280;51842;47.450;8.654;2023-07-09T10:06:23;95987.06;;;40.04;24.33
44297;BME280;51842;47.450;8.654;2023-07-09T10:11:48;95994.75;;;39.61;25.38
44297;BME280;51842;47.450;8.654;2023-07-09T10:14:38;95987.41;;;39.67;25.14
44297;BME280;51842;47.450;8.654;2023-07-09T10:25:44;95975.16;;;39.52;24.14
44297;BME280;51842;47.450;8.654;2023-07-09T10:34:26;95969.34;;;40.45;22.82
44297;BME280;51842;47.450;8.654;2023-07-09T10:39:57;95969.63;;;40.38;23.38
44297;BME280;51842;47.450;8.654;2023-07-09T10:42:27;95959.56;;;40.40;23.52
44297;BME280;51842;47.450;8.654;2023-07-09T10:45:22;95958.84;;;40.62;23.73
44297;BME280;51842;47.450;8.654;2023-07-09T10:47:59;95950.13;;;40.82;23.99
44297;BME280;51842;47.450;8.654;2023-07-09T10:50:41;95943.66;;;41.38;23.02
44297;BME280;51842;47.450;8.654;2023-07-09T10:53:41;95939.41;;;41.33;22.97
44297;BME280;51842;47.450;8.654;2023-07-09T10:56:16;95945.53;;;41.41;23.19
44297;BME280;51842;47.450;8.654;2023-07-09T11:01:43;95936.03;;;41.70;21.92
44297;BME280;51842;47.450;8.654;2023-07-09T11:04:36;95932.25;;;41.54;21.82
44297;BME280;51842;47.450;8.654;2023-07-09T11:07:11;95939.66;;;41.48;20.98
44297;BME280;51842;47.450;8.654;2023-07-09T11:09:46;95937.78;;;40.92;21.71
44297;BME280;51842;47.450;8.654;2023-07-09T11:12:24;95929.34;;;40.61;21.43
44297;BME280;51842;47.450;8.654;2023-07-09T11:15:19;95931.59;;;40.31;21.47
44297;BME280;51842;47.450;8.654;2023-07-09T11:17:48;95939.50;;;40.33;23.11
44297;BME280;51842;47.450;8.654;2023-07-09T11:20:35;95926.66;;;39.88;21.79
44297;BME280;51842;47.450;8.654;2023-07-09T11:23:24;95924.19;;;40.03;21.87
44297;BME280;51842;47.450;8.654;2023-07-09T11:28:41;95931.41;;;40.47;20.90
44297;BME280;51842;47.450;8.654;2023-07-09T11:34:14;95930.38;;;40.98;20.17
44297;BME280;51842;47.450;8.654;2023-07-09T11:37:00;95925.78;;;41.35;19.93
44297;BME280;51842;47.450;8.654;2023-07-09T11:39:42;95927.56;;;41.51;20.00
44297;BME280;51842;47.450;8.654;2023-07-09T11:45:26;95920.88;;;41.18;19.76
44297;BME280;51842;47.450;8.654;2023-07-09T11:48:25;95919.06;;;41.02;20.37
44297;BME280;51842;47.450;8.654;2023-07-09T11:50:54;95918.13;;;40.74;20.01
44297;BME280;51842;47.450;8.654;2023-07-09T11:53:46;95926.25;;;40.81;20.82
44297;BME280;51842;47.450;8.654;2023-07-09T11:56:13;95917.00;;;41.15;19.65
44297;BME280;51842;47.450;8.654;2023-07-09T11:58:56;95922.13;;;41.88;18.63
44297;BME280;51842;47.450;8.654;2023-07-09T12:01:43;95929.19;;;42.57;18.70
44297;BME280;51842;47.450;8.654;2023-07-09T12:04:19;95928.25;;;42.69;17.65
44297;BME280;51842;47.450;8.654;2023-07-09T12:06:47;95917.66;;;42.92;18.13
44297;BME280;51842;47.450;8.654;2023-07-09T12:09:20;95924.00;;;42.92;17.12
44297;BME280;51842;47.450;8.654;2023-07-09T12:11:51;95914.41;;;42.75;17.57
44297;BME280;51842;47.450;8.654;2023-07-09T12:14:20;95914.69;;;42.95;17.62
44297;BME280;51842;47.450;8.654;2023-07-09T12:16:50;95918.63;;;43.31;17.47
44297;BME280;51842;47.450;8.654;2023-07-09T12:19:22;95912.84;;;43.44;16.56
44297;BME280;51842;47.450;8.654;2023-07-09T12:21:53;95912.47;;;43.00;16.53
44297;BME280;51842;47.450;8.654;2023-07-09T12:27:00;95903.34;;;43.41;16.77
44297;BME280;51842;47.450;8.654;2023-07-09T12:29:33;95896.13;;;43.50;16.92
44297;BME280;51842;47.450;8.654;2023-07-09T12:32:11;95903.94;;;43.46;16.56
44297;BME280;51842;47.450;8.654;2023-07-09T12:34:37;95886.06;;;42.91;18.02
44297;BME280;51842;47.450;8.654;2023-07-09T12:37:03;95880.00;;;42.84;17.53
44297;BME280;51842;47.450;8.654;2023-07-09T12:39:32;95885.72;;;42.98;17.94
44297;BME280;51842;47.450;8.654;2023-07-09T12:42:03;95884.81;;;42.92;17.27
44297;BME280;51842;47.450;8.654;2023-07-09T12:44:35;95894.28;;;42.95;17.46
44297;BME280;51842;47.450;8.654;2023-07-09T12:47:01;95882.03;;;42.56;17.28
44297;BME280;51842;47.450;8.654;2023-07-09T12:49:36;95884.69;;;42.78;17.32
44297;BME280;51842;47.450;8.654;2023-07-09T12:52:17;95891.09;;;42.50;17.31
44297;BME280;51842;47.450;8.654;2023-07-09T12:54:56;95880.19;;;42.43;17.22
44297;BME280;51842;47.450;8.654;2023-07-09T12:57:24;95875.84;;;42.51;16.97
44297;BME280;51842;47.450;8.654;2023-07-09T12:59:51;95875.31;;;42.90;17.20
44297;BME280;51842;47.450;8.654;2023-07-09T13:02:23;95877.63;;;43.01;17.47
44297;BME280;51842;47.450;8.654;2023-07-09T13:05:13;95869.97;;;43.19;17.40
44297;BME280;51842;47.450;8.654;2023-07-09T13:07:58;95870.72;;;43.20;17.12
44297;BME280;51842;47.450;8.654;2023-07-09T13:10:29;95873.22;;;43.60;15.91
44297;BME280;51842;47.450;8.654;2023-07-09T13:13:03;95873.63;;;43.68;16.38
44297;BME280;51842;47.450;8.654;2023-07-09T13:15:55;95862.38;;;43.44;15.99
44297;BME280;51842;47.450;8.654;2023-07-09T13:18:27;95874.44;;;43.59;15.16
44297;BME280;51842;47.450;8.654;2023-07-09T13:20:55;95865.78;;;43.48;15.54
44297;BME280;51842;47.450;8.654;2023-07-09T13:23:27;95868.44;;;43.76;15.05
44297;BME280;51842;47.450;8.654;2023-07-09T13:25:54;95862.28;;;43.86;14.95
44297;BME280;51842;47.450;8.654;2023-07-09T13:28:30;95863.53;;;43.85;15.91
44297;BME280;51842;47.450;8.654;2023-07-09T13:31:19;95853.75;;;44.05;15.77
44297;BME280;51842;47.450;8.654;2023-07-09T13:33:55;95853.19;;;44.16;15.67
44297;BME280;51842;47.450;8.654;2023-07-09T13:36:22;95852.50;;;44.06;16.16
44297;BME280;51842;47.450;8.654;2023-07-09T13:38:49;95850.06;;;44.38;16.03
44297;BME280;51842;47.450;8.654;2023-07-09T13:41:18;95854.44;;;44.53;15.41
44297;BME280;51842;47.450;8.654;2023-07-09T13:43:48;95842.94;;;44.81;14.40
44297;BME280;51842;47.450;8.654;2023-07-09T13:46:15;95848.75;;;44.92;13.93
44297;BME280;51842;47.450;8.654;2023-07-09T13:48:43;95833.13;;;45.06;14.13
44297;BME280;51842;47.450;8.654;2023-07-09T13:51:19;95847.81;;;45.10;14.43
44297;BME280;51842;47.450;8.654;2023-07-09T13:53:46;95841.09;;;44.48;13.66
44297;BME280;51842;47.450;8.654;2023-07-09T13:56:12;95837.00;;;44.34;14.49
44297;BME280;51842;47.450;8.654;2023-07-09T13:58:38;95838.03;;;44.76;14.10
44297;BME280;51842;47.450;8.654;2023-07-09T14:01:23;95832.31;;;44.85;13.11